Reiffton, Pennsylvania
Current Conditions -  °F | °C
As of 4:54 PM on Sunday 21 Dec 2014 (Local Time) from KRDG Reporting Station
Clear Clear  
Wind Chill: 32°   Ceiling: Unl
Heat Index: 32°   Visibility: 10mi
Dew Point: 21°   Wind: 3mph
Humidity: 64%   Direction: 250°WSW
Pressure: 30.3"   Gusts: NA
Location:  40.3351°N, 75.8521°W
Report Text: KRDG 212154Z AUTO 25003KT 10SM CLR 00/M06 A3030 RMK AO2 SLP268 T00001061
Loading
Personal Weather Stations






























Interactive Weather Map New forecast layout! Learn more

10-Day Weather Forecast

Advertisements
Track Severe Weather on mobile